Grenadines III — CRA5628 — position and weather

sailwx.info

Track history (hours):
 
Tides and Currents Weather Stations Pressure Air Temp Water Temp Dewpoint Dewpoint Depression Visibility Wind Speed Wind Dir Waves Ship Positions

Grenadines III

Last reported at 2016-Aug-24 12:07 UTC. Time now 2016-Aug-28 16:39 UTC.
Position N 43°29' E 007°04'.

Type: Pilot. MMSI: 225910870.

Date/timePositionNaut miles runAvg speedWind from/ knotsBaromVisibWave heightAir tempDewpointWater temp
2016-Aug-24 12:07N 43°29' E 007°04'610.7
2016-Aug-24 11:33N 43°33' E 007°10'8 8.3
2016-Aug-24 10:33N 43°40' E 007°17'0 0.3
2016-Aug-24 09:33N 43°39' E 007°16'2 2.1
2016-Aug-24 08:33N 43°37' E 007°16'5 0.3
2016-Aug-23 15:05N 43°42' E 007°17'0 0.0
2016-Aug-23 14:30N 43°42' E 007°17'0 0.0
2016-Aug-23 13:31N 43°42' E 007°17'3 3.6
2016-Aug-23 12:33N 43°43' E 007°22'0 0.0
2016-Aug-23 11:33N 43°43' E 007°22'0 0.0
2016-Aug-23 10:31N 43°43' E 007°22'0 0.0
2016-Aug-23 09:32N 43°43' E 007°22'0 0.0
2016-Aug-23 08:31N 43°43' E 007°22'1010.8
2016-Aug-23 07:34N 43°34' E 007°15'6 6.2
2016-Aug-23 06:33N 43°34' E 007°06'0 0.0
2016-Aug-23 05:33N 43°34' E 007°06'0 0.0
2016-Aug-23 04:33N 43°34' E 007°06'0 0.0
2016-Aug-23 03:33N 43°34' E 007°06'0 0.0
2016-Aug-23 02:33N 43°34' E 007°06'0 0.0
2016-Aug-23 01:33N 43°34' E 007°06'0 0.0
2016-Aug-23 00:33N 43°34' E 007°06'0 0.0
2016-Aug-22 23:33N 43°34' E 007°06'0 0.0
2016-Aug-22 22:33N 43°34' E 007°06'0 0.0
2016-Aug-22 21:33N 43°34' E 007°06'0 0.0
2016-Aug-22 20:33N 43°34' E 007°06'0 0.0
2016-Aug-22 19:33N 43°34' E 007°06'0 0.0
2016-Aug-22 18:33N 43°34' E 007°06'0 0.0
2016-Aug-22 17:33N 43°34' E 007°06'0 0.0
2016-Aug-22 16:32N 43°34' E 007°06'0 0.0
2016-Aug-22 15:33N 43°34' E 007°06'0 0.0
2016-Aug-22 14:33N 43°34' E 007°06'0 0.0
2016-Aug-22 13:34N 43°34' E 007°06'0 0.0
2016-Aug-22 12:33N 43°34' E 007°06'0 0.0
2016-Aug-22 11:33N 43°34' E 007°06'0 0.0
2016-Aug-22 10:33N 43°34' E 007°06'3 3.1
2016-Aug-22 09:33N 43°31' E 007°05'3 0.2
2016-Aug-21 18:23N 43°33' E 007°02'0 0.0
2016-Aug-21 16:05N 43°33' E 007°02'2 4.3
2016-Aug-21 15:33N 43°30' E 007°02'1312.9
2016-Aug-21 14:33N 43°38' E 007°16'7 6.5
2016-Aug-21 13:32N 43°43' E 007°22'0 0.0
2016-Aug-21 12:33N 43°43' E 007°22'0 0.0
2016-Aug-21 11:33N 43°43' E 007°22'0 0.0
2016-Aug-21 10:33N 43°43' E 007°22'6 5.8
2016-Aug-21 09:33N 43°39' E 007°16'9 9.2
2016-Aug-21 08:33N 43°33' E 007°06'0 0.0
2016-Aug-21 07:32N 43°33' E 007°06'0 0.0
2016-Aug-21 06:32N 43°33' E 007°06'0 0.0
2016-Aug-21 05:32N 43°33' E 007°06'0 0.0
2016-Aug-21 04:32N 43°33' E 007°06'4 4.3
2016-Aug-21 03:33N 43°32' E 007°11'6110.1
2016-Aug-20 21:30N 43°17' E 008°33'1010.1
2016-Aug-20 20:33N 43°14' E 008°45'1010.3
2016-Aug-20 19:33N 43°10' E 008°59'1211.8
2016-Aug-20 18:29N 43°06' E 009°15'1313.8
2016-Aug-20 17:32N 43°01' E 009°32'2713.3
2016-Aug-20 15:29N 42°51' E 010°06'7 1.4
2016-Aug-20 10:19N 42°48' E 010°15'0 0.0
2016-Aug-20 09:28N 42°48' E 010°15'0 0.0
2016-Aug-20 08:13N 42°48' E 010°15'0 0.0
2016-Aug-20 07:31N 42°48' E 010°15'0 0.0
2016-Aug-20 02:19N 42°48' E 010°15'4 0.1
2016-Aug-18 19:33N 42°50' E 010°10'  
2016-Aug-16 10:11N 41°14' E 009°30'  
Track history (hours):
 
Tides and Currents Weather Stations Pressure Air Temp Water Temp Dewpoint Dewpoint Depression Visibility Wind Speed Wind Dir Waves Ship Positions

Grenadines III

Last reported at 2016-Aug-24 12:07 UTC. Time now 2016-Aug-28 16:39 UTC.
Position N 43°29' E 007°04'.

Type: Pilot. MMSI: 225910870.

Date/timePositionNaut miles runAvg speedWind from/ knotsBaromVisibWave heightAir tempDewpointWater temp
2016-Aug-24 12:07N 43°29' E 007°04'610.7
2016-Aug-24 11:33N 43°33' E 007°10'8 8.3
2016-Aug-24 10:33N 43°40' E 007°17'0 0.3
2016-Aug-24 09:33N 43°39' E 007°16'2 2.1
2016-Aug-24 08:33N 43°37' E 007°16'5 0.3
2016-Aug-23 15:05N 43°42' E 007°17'0 0.0
2016-Aug-23 14:30N 43°42' E 007°17'0 0.0
2016-Aug-23 13:31N 43°42' E 007°17'3 3.6
2016-Aug-23 12:33N 43°43' E 007°22'0 0.0
2016-Aug-23 11:33N 43°43' E 007°22'0 0.0
2016-Aug-23 10:31N 43°43' E 007°22'0 0.0
2016-Aug-23 09:32N 43°43' E 007°22'0 0.0
2016-Aug-23 08:31N 43°43' E 007°22'1010.8
2016-Aug-23 07:34N 43°34' E 007°15'6 6.2
2016-Aug-23 06:33N 43°34' E 007°06'0 0.0
2016-Aug-23 05:33N 43°34' E 007°06'0 0.0
2016-Aug-23 04:33N 43°34' E 007°06'0 0.0
2016-Aug-23 03:33N 43°34' E 007°06'0 0.0
2016-Aug-23 02:33N 43°34' E 007°06'0 0.0
2016-Aug-23 01:33N 43°34' E 007°06'0 0.0
2016-Aug-23 00:33N 43°34' E 007°06'0 0.0
2016-Aug-22 23:33N 43°34' E 007°06'0 0.0
2016-Aug-22 22:33N 43°34' E 007°06'0 0.0
2016-Aug-22 21:33N 43°34' E 007°06'0 0.0
2016-Aug-22 20:33N 43°34' E 007°06'0 0.0
2016-Aug-22 19:33N 43°34' E 007°06'0 0.0
2016-Aug-22 18:33N 43°34' E 007°06'0 0.0
2016-Aug-22 17:33N 43°34' E 007°06'0 0.0
2016-Aug-22 16:32N 43°34' E 007°06'0 0.0
2016-Aug-22 15:33N 43°34' E 007°06'0 0.0
2016-Aug-22 14:33N 43°34' E 007°06'0 0.0
2016-Aug-22 13:34N 43°34' E 007°06'0 0.0
2016-Aug-22 12:33N 43°34' E 007°06'0 0.0
2016-Aug-22 11:33N 43°34' E 007°06'0 0.0
2016-Aug-22 10:33N 43°34' E 007°06'3 3.1
2016-Aug-22 09:33N 43°31' E 007°05'3 0.2
2016-Aug-21 18:23N 43°33' E 007°02'0 0.0
2016-Aug-21 16:05N 43°33' E 007°02'2 4.3
2016-Aug-21 15:33N 43°30' E 007°02'1312.9
2016-Aug-21 14:33N 43°38' E 007°16'7 6.5
2016-Aug-21 13:32N 43°43' E 007°22'0 0.0
2016-Aug-21 12:33N 43°43' E 007°22'0 0.0
2016-Aug-21 11:33N 43°43' E 007°22'0 0.0
2016-Aug-21 10:33N 43°43' E 007°22'6 5.8
2016-Aug-21 09:33N 43°39' E 007°16'9 9.2
2016-Aug-21 08:33N 43°33' E 007°06'0 0.0
2016-Aug-21 07:32N 43°33' E 007°06'0 0.0
2016-Aug-21 06:32N 43°33' E 007°06'0 0.0
2016-Aug-21 05:32N 43°33' E 007°06'0 0.0
2016-Aug-21 04:32N 43°33' E 007°06'4 4.3
2016-Aug-21 03:33N 43°32' E 007°11'6110.1
2016-Aug-20 21:30N 43°17' E 008°33'1010.1
2016-Aug-20 20:33N 43°14' E 008°45'1010.3
2016-Aug-20 19:33N 43°10' E 008°59'1211.8
2016-Aug-20 18:29N 43°06' E 009°15'1313.8
2016-Aug-20 17:32N 43°01' E 009°32'2713.3
2016-Aug-20 15:29N 42°51' E 010°06'7 1.4
2016-Aug-20 10:19N 42°48' E 010°15'0 0.0
2016-Aug-20 09:28N 42°48' E 010°15'0 0.0
2016-Aug-20 08:13N 42°48' E 010°15'0 0.0
2016-Aug-20 07:31N 42°48' E 010°15'0 0.0
2016-Aug-20 02:19N 42°48' E 010°15'4 0.1
2016-Aug-18 19:33N 42°50' E 010°10'  
2016-Aug-16 10:11N 41°14' E 009°30'  

Dump ship's entire track history